sensor_id;sensor_type;location;lat;lon;timestamp;temperature;humidity
30594;DHT22;33199;47.590;8.300;2023-02-21T00:02:09;10.50;70.40
30594;DHT22;33199;47.590;8.300;2023-02-21T00:04:53;10.50;70.40
30594;DHT22;33199;47.590;8.300;2023-02-21T00:07:38;10.50;70.60
30594;DHT22;33199;47.590;8.300;2023-02-21T00:10:22;10.50;70.30
30594;DHT22;33199;47.590;8.300;2023-02-21T00:13:06;10.50;70.40
30594;DHT22;33199;47.590;8.300;2023-02-21T00:15:51;10.50;70.30
30594;DHT22;33199;47.590;8.300;2023-02-21T00:18:36;10.50;70.40
30594;DHT22;33199;47.590;8.300;2023-02-21T00:21:21;10.50;70.40
30594;DHT22;33199;47.590;8.300;2023-02-21T00:24:05;10.50;70.40
30594;DHT22;33199;47.590;8.300;2023-02-21T00:26:49;10.50;70.40
30594;DHT22;33199;47.590;8.300;2023-02-21T00:29:34;10.50;70.50
30594;DHT22;33199;47.590;8.300;2023-02-21T00:32:18;10.50;70.50
30594;DHT22;33199;47.590;8.300;2023-02-21T00:35:02;10.50;70.40
30594;DHT22;33199;47.590;8.300;2023-02-21T00:37:50;10.50;70.50
30594;DHT22;33199;47.590;8.300;2023-02-21T00:40:35;10.50;70.60
30594;DHT22;33199;47.590;8.300;2023-02-21T00:43:26;10.40;70.50
30594;DHT22;33199;47.590;8.300;2023-02-21T00:46:10;10.50;70.60
30594;DHT22;33199;47.590;8.300;2023-02-21T00:48:54;10.50;70.80
30594;DHT22;33199;47.590;8.300;2023-02-21T00:51:38;10.40;70.70
30594;DHT22;33199;47.590;8.300;2023-02-21T00:54:23;10.40;70.60
30594;DHT22;33199;47.590;8.300;2023-02-21T00:57:07;10.40;70.70
30594;DHT22;33199;47.590;8.300;2023-02-21T00:59:51;10.40;70.60
30594;DHT22;33199;47.590;8.300;2023-02-21T01:02:35;10.40;70.70
30594;DHT22;33199;47.590;8.300;2023-02-21T01:05:19;10.40;70.60
30594;DHT22;33199;47.590;8.300;2023-02-21T01:08:04;10.40;70.60
30594;DHT22;33199;47.590;8.300;2023-02-21T01:10:48;10.40;70.50
30594;DHT22;33199;47.590;8.300;2023-02-21T01:13:32;10.40;70.60
30594;DHT22;33199;47.590;8.300;2023-02-21T01:16:17;10.40;70.60
30594;DHT22;33199;47.590;8.300;2023-02-21T01:19:01;10.40;70.70
30594;DHT22;33199;47.590;8.300;2023-02-21T01:21:45;10.40;70.70
30594;DHT22;33199;47.590;8.300;2023-02-21T01:24:30;10.40;70.80
30594;DHT22;33199;47.590;8.300;2023-02-21T01:27:14;10.40;70.80
30594;DHT22;33199;47.590;8.300;2023-02-21T01:29:58;10.40;70.70
30594;DHT22;33199;47.590;8.300;2023-02-21T01:32:42;10.30;70.70
30594;DHT22;33199;47.590;8.300;2023-02-21T01:35:26;10.30;70.60
30594;DHT22;33199;47.590;8.300;2023-02-21T01:38:11;10.30;70.60
30594;DHT22;33199;47.590;8.300;2023-02-21T01:40:55;10.30;70.60
30594;DHT22;33199;47.590;8.300;2023-02-21T01:43:56;10.30;70.60
30594;DHT22;33199;47.590;8.300;2023-02-21T01:46:41;10.30;70.60
30594;DHT22;33199;47.590;8.300;2023-02-21T01:49:25;10.30;70.60
30594;DHT22;33199;47.590;8.300;2023-02-21T01:52:10;10.30;70.90
30594;DHT22;33199;47.590;8.300;2023-02-21T01:54:55;10.30;70.70
30594;DHT22;33199;47.590;8.300;2023-02-21T01:57:40;10.30;70.80
30594;DHT22;33199;47.590;8.300;2023-02-21T02:00:24;10.30;70.60
30594;DHT22;33199;47.590;8.300;2023-02-21T02:03:11;10.30;70.70
30594;DHT22;33199;47.590;8.300;2023-02-21T02:06:08;10.30;70.60
30594;DHT22;33199;47.590;8.300;2023-02-21T02:08:53;10.30;70.60
30594;DHT22;33199;47.590;8.300;2023-02-21T02:28:04;10.20;70.60
30594;DHT22;33199;47.590;8.300;2023-02-21T02:34:06;10.20;70.60
30594;DHT22;33199;47.590;8.300;2023-02-21T02:36:44;10.20;70.60
30594;DHT22;33199;47.590;8.300;2023-02-21T02:39:31;10.20;70.70
30594;DHT22;33199;47.590;8.300;2023-02-21T02:45:09;10.20;70.60
30594;DHT22;33199;47.590;8.300;2023-02-21T02:47:40;10.20;70.50
30594;DHT22;33199;47.590;8.300;2023-02-21T02:50:07;10.20;70.60
30594;DHT22;33199;47.590;8.300;2023-02-21T02:52:34;10.20;70.60
30594;DHT22;33199;47.590;8.300;2023-02-21T02:55:19;10.20;70.60
30594;DHT22;33199;47.590;8.300;2023-02-21T02:57:47;10.20;70.50
30594;DHT22;33199;47.590;8.300;2023-02-21T03:00:14;10.20;70.60
30594;DHT22;33199;47.590;8.300;2023-02-21T03:03:02;10.10;70.50
30594;DHT22;33199;47.590;8.300;2023-02-21T03:11:09;10.10;70.50
30594;DHT22;33199;47.590;8.300;2023-02-21T03:13:52;10.10;70.50
30594;DHT22;33199;47.590;8.300;2023-02-21T03:19:03;10.10;70.50
30594;DHT22;33199;47.590;8.300;2023-02-21T03:21:37;10.10;70.50
30594;DHT22;33199;47.590;8.300;2023-02-21T03:24:04;10.10;70.50
30594;DHT22;33199;47.590;8.300;2023-02-21T03:26:33;10.10;70.50
30594;DHT22;33199;47.590;8.300;2023-02-21T03:29:01;10.10;70.50
30594;DHT22;33199;47.590;8.300;2023-02-21T03:31:34;10.10;70.50
30594;DHT22;33199;47.590;8.300;2023-02-21T03:34:01;10.10;70.30
30594;DHT22;33199;47.590;8.300;2023-02-21T03:36:27;10.10;70.40
30594;DHT22;33199;47.590;8.300;2023-02-21T03:38:52;10.10;70.50
30594;DHT22;33199;47.590;8.300;2023-02-21T03:41:18;10.10;70.30
30594;DHT22;33199;47.590;8.300;2023-02-21T03:43:44;10.10;70.50
30594;DHT22;33199;47.590;8.300;2023-02-21T03:46:09;10.10;70.30
30594;DHT22;33199;47.590;8.300;2023-02-21T03:48:35;10.10;70.30
30594;DHT22;33199;47.590;8.300;2023-02-21T03:51:01;10.10;70.40
30594;DHT22;33199;47.590;8.300;2023-02-21T03:53:27;10.10;70.50
30594;DHT22;33199;47.590;8.300;2023-02-21T03:55:52;10.10;70.50
30594;DHT22;33199;47.590;8.300;2023-02-21T03:58:18;10.10;70.30
30594;DHT22;33199;47.590;8.300;2023-02-21T04:00:44;10.00;70.30
30594;DHT22;33199;47.590;8.300;2023-02-21T04:03:09;10.00;70.30
30594;DHT22;33199;47.590;8.300;2023-02-21T04:05:35;10.00;70.40
30594;DHT22;33199;47.590;8.300;2023-02-21T04:08:02;10.00;70.20
30594;DHT22;33199;47.590;8.300;2023-02-21T04:10:28;10.10;70.30
30594;DHT22;33199;47.590;8.300;2023-02-21T04:12:54;10.00;70.30
30594;DHT22;33199;47.590;8.300;2023-02-21T04:15:19;10.00;70.40
30594;DHT22;33199;47.590;8.300;2023-02-21T04:17:45;10.00;70.40
30594;DHT22;33199;47.590;8.300;2023-02-21T04:20:12;10.00;70.40
30594;DHT22;33199;47.590;8.300;2023-02-21T04:22:38;10.00;70.30
30594;DHT22;33199;47.590;8.300;2023-02-21T04:25:05;10.00;70.40
30594;DHT22;33199;47.590;8.300;2023-02-21T04:27:30;10.00;70.30
30594;DHT22;33199;47.590;8.300;2023-02-21T04:29:56;10.00;70.40
30594;DHT22;33199;47.590;8.300;2023-02-21T04:32:22;10.00;70.30
30594;DHT22;33199;47.590;8.300;2023-02-21T04:34:47;10.00;70.30
30594;DHT22;33199;47.590;8.300;2023-02-21T04:37:13;9.90;70.30
30594;DHT22;33199;47.590;8.300;2023-02-21T04:39:39;10.00;70.30
30594;DHT22;33199;47.590;8.300;2023-02-21T04:42:05;9.90;70.30
30594;DHT22;33199;47.590;8.300;2023-02-21T04:44:31;10.00;70.20
30594;DHT22;33199;47.590;8.300;2023-02-21T04:46:56;10.00;71.10
30594;DHT22;33199;47.590;8.300;2023-02-21T04:49:22;9.90;70.30
30594;DHT22;33199;47.590;8.300;2023-02-21T04:51:52;9.90;70.30
30594;DHT22;33199;47.590;8.300;2023-02-21T04:54:18;9.90;70.30
30594;DHT22;33199;47.590;8.300;2023-02-21T04:56:44;9.80;63.40
30594;DHT22;33199;47.590;8.300;2023-02-21T04:59:09;9.50;59.50
30594;DHT22;33199;47.590;8.300;2023-02-21T05:01:35;9.20;61.40
30594;DHT22;33199;47.590;8.300;2023-02-21T05:04:01;9.20;63.30
30594;DHT22;33199;47.590;8.300;2023-02-21T05:06:28;9.10;63.40
30594;DHT22;33199;47.590;8.300;2023-02-21T05:08:54;9.10;63.90
30594;DHT22;33199;47.590;8.300;2023-02-21T05:11:20;9.20;64.10
30594;DHT22;33199;47.590;8.300;2023-02-21T05:13:47;9.20;65.50
30594;DHT22;33199;47.590;8.300;2023-02-21T05:16:12;9.30;66.10
30594;DHT22;33199;47.590;8.300;2023-02-21T05:18:41;9.30;67.40
30594;DHT22;33199;47.590;8.300;2023-02-21T05:21:07;9.40;67.60
30594;DHT22;33199;47.590;8.300;2023-02-21T05:23:33;9.40;67.60
30594;DHT22;33199;47.590;8.300;2023-02-21T05:26:11;9.40;68.30
30594;DHT22;33199;47.590;8.300;2023-02-21T05:28:38;9.40;68.60
30594;DHT22;33199;47.590;8.300;2023-02-21T05:31:06;9.40;68.70
30594;DHT22;33199;47.590;8.300;2023-02-21T05:33:31;9.40;68.80
30594;DHT22;33199;47.590;8.300;2023-02-21T05:35:59;9.50;68.90
30594;DHT22;33199;47.590;8.300;2023-02-21T05:38:25;9.50;68.80
30594;DHT22;33199;47.590;8.300;2023-02-21T05:40:52;9.50;68.70
30594;DHT22;33199;47.590;8.300;2023-02-21T05:43:18;9.50;68.90
30594;DHT22;33199;47.590;8.300;2023-02-21T05:45:44;9.50;68.90
30594;DHT22;33199;47.590;8.300;2023-02-21T05:48:09;9.50;68.90
30594;DHT22;33199;47.590;8.300;2023-02-21T05:50:35;9.50;68.90
30594;DHT22;33199;47.590;8.300;2023-02-21T05:53:01;9.50;68.80
30594;DHT22;33199;47.590;8.300;2023-02-21T05:55:27;9.50;69.00
30594;DHT22;33199;47.590;8.300;2023-02-21T05:57:53;9.50;69.00
30594;DHT22;33199;47.590;8.300;2023-02-21T06:00:22;9.50;68.90
30594;DHT22;33199;47.590;8.300;2023-02-21T06:02:49;9.50;69.00
30594;DHT22;33199;47.590;8.300;2023-02-21T06:05:16;9.50;69.00
30594;DHT22;33199;47.590;8.300;2023-02-21T06:07:42;9.50;69.00
30594;DHT22;33199;47.590;8.300;2023-02-21T06:10:08;9.50;68.90
30594;DHT22;33199;47.590;8.300;2023-02-21T06:12:33;9.50;69.00
30594;DHT22;33199;47.590;8.300;2023-02-21T06:14:59;9.50;68.80
30594;DHT22;33199;47.590;8.300;2023-02-21T06:17:25;9.40;68.80
30594;DHT22;33199;47.590;8.300;2023-02-21T06:19:51;9.50;68.90
30594;DHT22;33199;47.590;8.300;2023-02-21T06:22:16;9.50;69.00
30594;DHT22;33199;47.590;8.300;2023-02-21T06:24:42;9.50;69.00
30594;DHT22;33199;47.590;8.300;2023-02-21T06:27:08;9.50;69.00
30594;DHT22;33199;47.590;8.300;2023-02-21T06:29:33;9.50;69.00
30594;DHT22;33199;47.590;8.300;2023-02-21T06:32:00;9.50;69.00
30594;DHT22;33199;47.590;8.300;2023-02-21T06:34:26;9.50;69.00
30594;DHT22;33199;47.590;8.300;2023-02-21T06:36:53;9.50;69.80
30594;DHT22;33199;47.590;8.300;2023-02-21T06:39:20;9.40;69.00
30594;DHT22;33199;47.590;8.300;2023-02-21T06:41:46;9.50;69.00
30594;DHT22;33199;47.590;8.300;2023-02-21T06:44:13;9.40;68.90
30594;DHT22;33199;47.590;8.300;2023-02-21T06:46:39;9.40;68.90
30594;DHT22;33199;47.590;8.300;2023-02-21T06:49:04;9.40;69.80
30594;DHT22;33199;47.590;8.300;2023-02-21T06:51:34;9.40;69.00
30594;DHT22;33199;47.590;8.300;2023-02-21T06:54:00;9.40;69.00
30594;DHT22;33199;47.590;8.300;2023-02-21T06:56:26;9.40;69.00
30594;DHT22;33199;47.590;8.300;2023-02-21T06:58:52;9.40;69.00
30594;DHT22;33199;47.590;8.300;2023-02-21T07:01:17;9.40;69.00
30594;DHT22;33199;47.590;8.300;2023-02-21T07:03:43;9.40;69.00
30594;DHT22;33199;47.590;8.300;2023-02-21T07:06:10;9.40;69.00
30594;DHT22;33199;47.590;8.300;2023-02-21T07:08:36;9.40;69.10
30594;DHT22;33199;47.590;8.300;2023-02-21T07:11:02;9.40;69.90
30594;DHT22;33199;47.590;8.300;2023-02-21T07:13:27;9.40;69.10
30594;DHT22;33199;47.590;8.300;2023-02-21T07:15:53;9.40;69.10
30594;DHT22;33199;47.590;8.300;2023-02-21T07:18:18;9.40;69.10
30594;DHT22;33199;47.590;8.300;2023-02-21T07:20:44;9.30;69.10
30594;DHT22;33199;47.590;8.300;2023-02-21T07:23:10;9.40;69.70
30594;DHT22;33199;47.590;8.300;2023-02-21T07:25:35;9.40;69.20
30594;DHT22;33199;47.590;8.300;2023-02-21T07:28:01;9.30;69.20
30594;DHT22;33199;47.590;8.300;2023-02-21T07:30:28;9.30;69.10
30594;DHT22;33199;47.590;8.300;2023-02-21T07:32:54;9.30;69.10
30594;DHT22;33199;47.590;8.300;2023-02-21T07:35:19;9.30;69.20
30594;DHT22;33199;47.590;8.300;2023-02-21T07:37:45;9.30;69.20
30594;DHT22;33199;47.590;8.300;2023-02-21T07:40:10;9.30;69.30
30594;DHT22;33199;47.590;8.300;2023-02-21T07:42:40;9.30;69.30
30594;DHT22;33199;47.590;8.300;2023-02-21T07:45:08;9.30;69.30
30594;DHT22;33199;47.590;8.300;2023-02-21T07:47:34;9.30;69.20
30594;DHT22;33199;47.590;8.300;2023-02-21T07:49:59;9.30;69.20
30594;DHT22;33199;47.590;8.300;2023-02-21T07:52:25;9.30;70.00
30594;DHT22;33199;47.590;8.300;2023-02-21T07:54:50;9.30;69.30
30594;DHT22;33199;47.590;8.300;2023-02-21T07:57:17;9.30;69.20
30594;DHT22;33199;47.590;8.300;2023-02-21T07:59:43;9.30;69.30
30594;DHT22;33199;47.590;8.300;2023-02-21T08:02:10;9.30;69.30
30594;DHT22;33199;47.590;8.300;2023-02-21T08:04:36;9.30;69.20
30594;DHT22;33199;47.590;8.300;2023-02-21T08:07:03;9.30;69.20
30594;DHT22;33199;47.590;8.300;2023-02-21T08:09:29;9.30;69.20
30594;DHT22;33199;47.590;8.300;2023-02-21T08:11:55;9.30;69.90
30594;DHT22;33199;47.590;8.300;2023-02-21T08:14:21;9.30;69.20
30594;DHT22;33199;47.590;8.300;2023-02-21T08:16:46;9.30;69.30
30594;DHT22;33199;47.590;8.300;2023-02-21T08:19:12;9.30;69.20
30594;DHT22;33199;47.590;8.300;2023-02-21T08:21:38;9.30;69.20
30594;DHT22;33199;47.590;8.300;2023-02-21T08:24:03;9.30;69.20
30594;DHT22;33199;47.590;8.300;2023-02-21T08:26:29;9.30;69.20
30594;DHT22;33199;47.590;8.300;2023-02-21T08:28:55;9.30;69.20
30594;DHT22;33199;47.590;8.300;2023-02-21T08:31:20;9.30;69.10
30594;DHT22;33199;47.590;8.300;2023-02-21T08:33:46;9.30;69.10
30594;DHT22;33199;47.590;8.300;2023-02-21T08:36:12;9.20;69.10
30594;DHT22;33199;47.590;8.300;2023-02-21T08:38:38;9.30;69.10
30594;DHT22;33199;47.590;8.300;2023-02-21T08:41:04;9.30;69.90
30594;DHT22;33199;47.590;8.300;2023-02-21T08:43:31;9.30;69.20
30594;DHT22;33199;47.590;8.300;2023-02-21T08:45:56;9.30;69.20
30594;DHT22;33199;47.590;8.300;2023-02-21T08:48:22;9.30;69.10
30594;DHT22;33199;47.590;8.300;2023-02-21T08:50:48;9.30;69.10
30594;DHT22;33199;47.590;8.300;2023-02-21T08:53:14;9.30;69.10
30594;DHT22;33199;47.590;8.300;2023-02-21T08:55:39;9.30;69.10
30594;DHT22;33199;47.590;8.300;2023-02-21T08:58:05;9.20;69.00
30594;DHT22;33199;47.590;8.300;2023-02-21T09:00:31;9.20;69.00
30594;DHT22;33199;47.590;8.300;2023-02-21T09:02:57;9.30;69.90
30594;DHT22;33199;47.590;8.300;2023-02-21T09:05:26;9.30;69.10
30594;DHT22;33199;47.590;8.300;2023-02-21T09:07:53;9.30;69.10
30594;DHT22;33199;47.590;8.300;2023-02-21T09:10:24;9.30;69.10
30594;DHT22;33199;47.590;8.300;2023-02-21T09:12:50;9.30;69.10
30594;DHT22;33199;47.590;8.300;2023-02-21T09:15:16;9.20;69.00
30594;DHT22;33199;47.590;8.300;2023-02-21T09:17:42;9.20;69.00
30594;DHT22;33199;47.590;8.300;2023-02-21T09:20:10;9.20;69.00
30594;DHT22;33199;47.590;8.300;2023-02-21T09:22:36;9.20;69.00
30594;DHT22;33199;47.590;8.300;2023-02-21T09:25:02;9.20;69.10
30594;DHT22;33199;47.590;8.300;2023-02-21T09:27:28;9.20;69.00
30594;DHT22;33199;47.590;8.300;2023-02-21T09:30:08;9.20;69.00
30594;DHT22;33199;47.590;8.300;2023-02-21T09:32:36;9.20;69.00
30594;DHT22;33199;47.590;8.300;2023-02-21T09:35:02;9.20;69.00
30594;DHT22;33199;47.590;8.300;2023-02-21T09:37:28;9.20;69.10
30594;DHT22;33199;47.590;8.300;2023-02-21T09:39:54;9.20;69.10
30594;DHT22;33199;47.590;8.300;2023-02-21T09:42:23;9.20;69.10
30594;DHT22;33199;47.590;8.300;2023-02-21T09:44:50;9.20;69.10
30594;DHT22;33199;47.590;8.300;2023-02-21T09:47:42;9.20;69.20
30594;DHT22;33199;47.590;8.300;2023-02-21T09:50:13;9.20;69.10
30594;DHT22;33199;47.590;8.300;2023-02-21T09:52:40;9.20;69.10
30594;DHT22;33199;47.590;8.300;2023-02-21T09:55:28;9.20;69.20
30594;DHT22;33199;47.590;8.300;2023-02-21T09:57:55;9.20;67.30
30594;DHT22;33199;47.590;8.300;2023-02-21T10:00:40;9.10;66.80
30594;DHT22;33199;47.590;8.300;2023-02-21T10:03:45;9.00;67.60
30594;DHT22;33199;47.590;8.300;2023-02-21T10:06:42;9.00;68.40
30594;DHT22;33199;47.590;8.300;2023-02-21T10:12:07;9.00;69.40
30594;DHT22;33199;47.590;8.300;2023-02-21T10:20:31;9.00;69.40
30594;DHT22;33199;47.590;8.300;2023-02-21T10:23:00;9.00;69.30
30594;DHT22;33199;47.590;8.300;2023-02-21T10:25:30;9.00;69.90
30594;DHT22;33199;47.590;8.300;2023-02-21T10:27:57;9.10;69.20
30594;DHT22;33199;47.590;8.300;2023-02-21T10:30:31;9.10;69.20
30594;DHT22;33199;47.590;8.300;2023-02-21T10:32:59;9.10;69.10
30594;DHT22;33199;47.590;8.300;2023-02-21T10:35:34;9.10;69.20
30594;DHT22;33199;47.590;8.300;2023-02-21T10:38:01;9.10;69.20
30594;DHT22;33199;47.590;8.300;2023-02-21T10:43:18;9.10;69.20
30594;DHT22;33199;47.590;8.300;2023-02-21T10:45:50;9.10;69.10
30594;DHT22;33199;47.590;8.300;2023-02-21T10:48:19;9.10;69.20
30594;DHT22;33199;47.590;8.300;2023-02-21T10:53:33;9.10;69.20
30594;DHT22;33199;47.590;8.300;2023-02-21T10:59:00;9.10;69.30
30594;DHT22;33199;47.590;8.300;2023-02-21T11:04:00;9.10;69.30
30594;DHT22;33199;47.590;8.300;2023-02-21T11:06:38;9.10;69.30
30594;DHT22;33199;47.590;8.300;2023-02-21T11:12:10;9.10;69.40
30594;DHT22;33199;47.590;8.300;2023-02-21T11:14:40;9.10;69.40
30594;DHT22;33199;47.590;8.300;2023-02-21T11:17:23;9.10;69.50
30594;DHT22;33199;47.590;8.300;2023-02-21T11:22:40;9.10;69.60
30594;DHT22;33199;47.590;8.300;2023-02-21T11:33:27;9.10;69.60
30594;DHT22;33199;47.590;8.300;2023-02-21T11:36:12;9.20;69.60
30594;DHT22;33199;47.590;8.300;2023-02-21T11:38:41;9.20;69.70
30594;DHT22;33199;47.590;8.300;2023-02-21T11:41:28;9.20;69.60
30594;DHT22;33199;47.590;8.300;2023-02-21T11:43:55;9.20;69.80
30594;DHT22;33199;47.590;8.300;2023-02-21T11:46:44;9.20;69.80
30594;DHT22;33199;47.590;8.300;2023-02-21T11:49:29;9.20;69.80
30594;DHT22;33199;47.590;8.300;2023-02-21T11:52:13;9.20;69.70
30594;DHT22;33199;47.590;8.300;2023-02-21T11:54:42;9.20;69.80
30594;DHT22;33199;47.590;8.300;2023-02-21T11:57:40;9.20;69.80
30594;DHT22;33199;47.590;8.300;2023-02-21T12:14:58;9.20;69.80
30594;DHT22;33199;47.590;8.300;2023-02-21T12:23:22;9.30;69.90
30594;DHT22;33199;47.590;8.300;2023-02-21T12:43:28;9.30;70.00
30594;DHT22;33199;47.590;8.300;2023-02-21T12:48:43;9.30;70.00
30594;DHT22;33199;47.590;8.300;2023-02-21T12:51:15;9.30;70.00
30594;DHT22;33199;47.590;8.300;2023-02-21T12:53:54;9.30;70.10
30594;DHT22;33199;47.590;8.300;2023-02-21T12:59:21;9.30;70.20
30594;DHT22;33199;47.590;8.300;2023-02-21T13:01:55;9.30;70.10
30594;DHT22;33199;47.590;8.300;2023-02-21T13:07:05;9.40;70.10
30594;DHT22;33199;47.590;8.300;2023-02-21T13:09:44;9.40;70.20
30594;DHT22;33199;47.590;8.300;2023-02-21T13:12:18;9.40;70.20
30594;DHT22;33199;47.590;8.300;2023-02-21T13:14:51;9.40;70.30
30594;DHT22;33199;47.590;8.300;2023-02-21T13:17:19;9.40;70.20
30594;DHT22;33199;47.590;8.300;2023-02-21T13:20:07;9.40;70.40
30594;DHT22;33199;47.590;8.300;2023-02-21T13:29:00;9.40;70.40
30594;DHT22;33199;47.590;8.300;2023-02-21T13:31:31;9.40;70.50
30594;DHT22;33199;47.590;8.300;2023-02-21T13:34:06;9.40;70.50
30594;DHT22;33199;47.590;8.300;2023-02-21T13:36:42;9.40;70.50
30594;DHT22;33199;47.590;8.300;2023-02-21T13:41:38;9.40;70.50
30594;DHT22;33199;47.590;8.300;2023-02-21T13:44:14;9.40;70.50
30594;DHT22;33199;47.590;8.300;2023-02-21T14:08:25;9.50;70.70
30594;DHT22;33199;47.590;8.300;2023-02-21T14:13:45;9.50;70.60
30594;DHT22;33199;47.590;8.300;2023-02-21T14:23:50;9.60;70.80
30594;DHT22;33199;47.590;8.300;2023-02-21T14:29:14;9.50;70.70
30594;DHT22;33199;47.590;8.300;2023-02-21T14:34:20;9.60;70.70
30594;DHT22;33199;47.590;8.300;2023-02-21T14:36:48;9.60;70.70
30594;DHT22;33199;47.590;8.300;2023-02-21T14:39:15;9.60;70.70
30594;DHT22;33199;47.590;8.300;2023-02-21T14:47:28;9.60;70.90
30594;DHT22;33199;47.590;8.300;2023-02-21T14:50:12;9.60;70.80
30594;DHT22;33199;47.590;8.300;2023-02-21T15:01:56;9.70;70.80
30594;DHT22;33199;47.590;8.300;2023-02-21T15:09:40;9.70;70.90
30594;DHT22;33199;47.590;8.300;2023-02-21T15:12:12;9.70;70.80
30594;DHT22;33199;47.590;8.300;2023-02-21T15:14:49;9.70;70.70
30594;DHT22;33199;47.590;8.300;2023-02-21T15:17:23;9.70;70.70
30594;DHT22;33199;47.590;8.300;2023-02-21T15:20:02;9.70;70.70
30594;DHT22;33199;47.590;8.300;2023-02-21T15:22:30;9.70;70.80
30594;DHT22;33199;47.590;8.300;2023-02-21T15:25:14;9.80;70.80
30594;DHT22;33199;47.590;8.300;2023-02-21T15:27:59;9.80;70.80
30594;DHT22;33199;47.590;8.300;2023-02-21T15:30:54;9.80;70.70
30594;DHT22;33199;47.590;8.300;2023-02-21T15:33:19;9.80;70.80
30594;DHT22;33199;47.590;8.300;2023-02-21T15:35:47;9.80;70.70
30594;DHT22;33199;47.590;8.300;2023-02-21T15:41:26;9.80;70.80
30594;DHT22;33199;47.590;8.300;2023-02-21T15:43:53;9.80;70.80
30594;DHT22;33199;47.590;8.300;2023-02-21T15:46:30;9.80;70.90
30594;DHT22;33199;47.590;8.300;2023-02-21T15:48:59;9.80;70.80
30594;DHT22;33199;47.590;8.300;2023-02-21T15:51:26;9.80;70.80
30594;DHT22;33199;47.590;8.300;2023-02-21T15:54:08;9.80;70.90
30594;DHT22;33199;47.590;8.300;2023-02-21T15:56:34;9.80;70.80
30594;DHT22;33199;47.590;8.300;2023-02-21T15:59:08;9.80;70.80
30594;DHT22;33199;47.590;8.300;2023-02-21T16:01:34;9.90;70.90
30594;DHT22;33199;47.590;8.300;2023-02-21T16:04:20;9.90;70.90
30594;DHT22;33199;47.590;8.300;2023-02-21T16:09:26;9.90;70.90
30594;DHT22;33199;47.590;8.300;2023-02-21T16:14:42;9.90;70.80
30594;DHT22;33199;47.590;8.300;2023-02-21T16:17:18;9.90;70.90
30594;DHT22;33199;47.590;8.300;2023-02-21T16:19:48;9.90;70.90
30594;DHT22;33199;47.590;8.300;2023-02-21T16:25:23;9.90;70.90
30594;DHT22;33199;47.590;8.300;2023-02-21T16:27:50;9.90;70.90
30594;DHT22;33199;47.590;8.300;2023-02-21T16:32:49;9.90;70.90
30594;DHT22;33199;47.590;8.300;2023-02-21T16:35:18;9.90;70.90
30594;DHT22;33199;47.590;8.300;2023-02-21T16:37:49;9.90;70.90
30594;DHT22;33199;47.590;8.300;2023-02-21T16:40:28;9.90;70.90
30594;DHT22;33199;47.590;8.300;2023-02-21T16:42:55;9.90;70.90
30594;DHT22;33199;47.590;8.300;2023-02-21T16:45:22;9.90;70.90
30594;DHT22;33199;47.590;8.300;2023-02-21T16:47:54;9.90;71.00
30594;DHT22;33199;47.590;8.300;2023-02-21T16:50:35;9.90;70.90
30594;DHT22;33199;47.590;8.300;2023-02-21T16:53:02;9.90;71.00
30594;DHT22;33199;47.590;8.300;2023-02-21T16:55:28;10.00;71.00
30594;DHT22;33199;47.590;8.300;2023-02-21T16:58:00;9.90;71.00
30594;DHT22;33199;47.590;8.300;2023-02-21T17:00:26;10.00;71.00
30594;DHT22;33199;47.590;8.300;2023-02-21T17:02:52;9.90;70.90
30594;DHT22;33199;47.590;8.300;2023-02-21T17:05:19;10.00;71.00
30594;DHT22;33199;47.590;8.300;2023-02-21T17:07:50;10.00;71.00
30594;DHT22;33199;47.590;8.300;2023-02-21T17:10:17;10.00;71.00
30594;DHT22;33199;47.590;8.300;2023-02-21T17:12:43;10.00;71.00
30594;DHT22;33199;47.590;8.300;2023-02-21T17:15:09;10.00;71.00
30594;DHT22;33199;47.590;8.300;2023-02-21T17:17:36;10.00;71.00
30594;DHT22;33199;47.590;8.300;2023-02-21T17:20:02;10.00;71.00
30594;DHT22;33199;47.590;8.300;2023-02-21T17:22:27;10.00;71.00
30594;DHT22;33199;47.590;8.300;2023-02-21T17:24:53;10.00;71.00
30594;DHT22;33199;47.590;8.300;2023-02-21T17:27:19;10.00;71.00
30594;DHT22;33199;47.590;8.300;2023-02-21T17:29:46;10.00;71.00
30594;DHT22;33199;47.590;8.300;2023-02-21T17:32:12;10.00;71.00
30594;DHT22;33199;47.590;8.300;2023-02-21T17:34:38;10.00;71.00
30594;DHT22;33199;47.590;8.300;2023-02-21T17:37:04;10.00;71.10
30594;DHT22;33199;47.590;8.300;2023-02-21T17:39:29;10.00;71.00
30594;DHT22;33199;47.590;8.300;2023-02-21T17:41:56;10.00;71.10
30594;DHT22;33199;47.590;8.300;2023-02-21T17:44:22;10.00;71.00
30594;DHT22;33199;47.590;8.300;2023-02-21T17:46:53;10.00;71.00
30594;DHT22;33199;47.590;8.300;2023-02-21T17:49:22;10.00;71.00
30594;DHT22;33199;47.590;8.300;2023-02-21T17:51:49;10.00;71.10
30594;DHT22;33199;47.590;8.300;2023-02-21T17:54:16;10.00;71.10
30594;DHT22;33199;47.590;8.300;2023-02-21T17:56:42;10.00;71.10
30594;DHT22;33199;47.590;8.300;2023-02-21T17:59:08;10.00;71.10
30594;DHT22;33199;47.590;8.300;2023-02-21T18:01:34;10.00;71.10
30594;DHT22;33199;47.590;8.300;2023-02-21T18:04:00;10.00;71.90
30594;DHT22;33199;47.590;8.300;2023-02-21T18:06:27;10.00;71.10
30594;DHT22;33199;47.590;8.300;2023-02-21T18:08:53;10.00;71.10
30594;DHT22;33199;47.590;8.300;2023-02-21T18:11:19;10.00;71.10
30594;DHT22;33199;47.590;8.300;2023-02-21T18:13:46;10.00;71.20
30594;DHT22;33199;47.590;8.300;2023-02-21T18:16:12;10.00;71.10
30594;DHT22;33199;47.590;8.300;2023-02-21T18:18:37;10.00;71.20
30594;DHT22;33199;47.590;8.300;2023-02-21T18:21:03;10.00;71.20
30594;DHT22;33199;47.590;8.300;2023-02-21T18:23:30;10.00;71.20
30594;DHT22;33199;47.590;8.300;2023-02-21T18:25:57;10.00;71.10
30594;DHT22;33199;47.590;8.300;2023-02-21T18:28:24;10.00;71.20
30594;DHT22;33199;47.590;8.300;2023-02-21T18:30:49;10.00;71.20
30594;DHT22;33199;47.590;8.300;2023-02-21T18:33:17;10.00;71.20
30594;DHT22;33199;47.590;8.300;2023-02-21T18:35:43;10.00;70.80
30594;DHT22;33199;47.590;8.300;2023-02-21T18:38:09;10.00;70.00
30594;DHT22;33199;47.590;8.300;2023-02-21T18:40:35;9.90;70.10
30594;DHT22;33199;47.590;8.300;2023-02-21T18:43:17;9.90;70.00
30594;DHT22;33199;47.590;8.300;2023-02-21T18:45:45;10.00;70.10
30594;DHT22;33199;47.590;8.300;2023-02-21T18:48:11;10.00;70.10
30594;DHT22;33199;47.590;8.300;2023-02-21T18:50:36;10.00;70.30
30594;DHT22;33199;47.590;8.300;2023-02-21T18:53:02;10.10;70.50
30594;DHT22;33199;47.590;8.300;2023-02-21T18:55:29;10.10;70.50
30594;DHT22;33199;47.590;8.300;2023-02-21T18:57:55;10.20;70.60
30594;DHT22;33199;47.590;8.300;2023-02-21T19:00:22;10.20;70.50
30594;DHT22;33199;47.590;8.300;2023-02-21T19:02:48;10.20;70.50
30594;DHT22;33199;47.590;8.300;2023-02-21T19:05:15;10.30;70.60
30594;DHT22;33199;47.590;8.300;2023-02-21T19:07:42;10.30;70.60
30594;DHT22;33199;47.590;8.300;2023-02-21T19:10:10;10.30;70.50
30594;DHT22;33199;47.590;8.300;2023-02-21T19:12:35;10.30;70.40
30594;DHT22;33199;47.590;8.300;2023-02-21T19:15:01;10.40;70.60
30594;DHT22;33199;47.590;8.300;2023-02-21T19:17:28;10.40;70.40